KMWC/MWC METAR and TAF weather

Enter ICAO airport designator
Station Type Date Time Source
KMWC METAR 2020/02/19 14:45 UTC NOAA

KMWC 191445Z 29006KT 10SM SKC M12/M19 A3061


Station Type Date Time Source
KMWC Decoded METAR 2020/02/19 14:45 UTC NOAA

Milwaukee / Timmerman, WI, United States (KMWC) 43-07N 088-02W
Feb 19, 2020 - 09:45 AM EST / 2020.02.19 1445 UTC
Wind: from the WNW (290 degrees) at 7 MPH (6 KT):0
Visibility: 10 mile(s):0
Sky conditions: clear
Temperature: 10 F (-12 C)
Windchill: 0 F (-18 C):1
Dew Point: -2 F (-19 C)
Relative Humidity: 55%
Pressure (altimeter): 30.61 in. Hg (1036 hPa)
ob: KMWC 191445Z 29006KT 10SM SKC M12/M19 A3061
cycle: 15

Station Type Date Time Source
KMWC TAF UTC NOAA

Error!

Example: see airport list